Accueil
METAR-TAF:

METAR-TAF

Aéroports :

Powell River, Colombie-Britannique, Canada

latitude: 49-50N, longitude: 124-30W, altitude: 130 m

Observation

Le bulletin a été fait il y a 8 heures et 3 minutes, à 02:00 UTC
Vent 3 kt de ouest/nord-ouest, variant entre sud-ouest et nord-ouest
Température 21°C
Humidité 60%
Pression 1020 hPa
Visibilité: 24.1 km
Ciel couvert à une hauteur de 5500 ft
fumée

METAR: CYPW 190200Z 29003KT 220V310 15SM FU OVC055 21/13 A3011 RMK FU5FU3 VIS W 10 FU LAST STFD OBS NEXT OBS 191300 UTC SLP197 DENSITY ALT 1100FT

Heure: 03:03 (10:03 UTC)


TAF: absent

Observations et prévisions météorologiques de plus de 4000 aéroports (messages METAR et TAF).

Les stations disponibles sont représentées par des disques jaunes et rouges sur la carte.

Passer la souris dessus pour voir le nom de la station.

Cliquer dessus pour voir les observations et prévisions météorologiques.

Pour changer de carte: cliquez sur les boutons verts avec une croix noire pour zoomer, sur le bouton vert avec un tiret pour effectuer un zoom arrière, ou sur les flèches vertes pour les cartes adjacentes.


METAR-TAF: